»·PEaware :: SKW2749 KVGT-KIFP

SKW2749 :: KVGT-KIFP

FLIGHT INFORMATION

Flight Status: Arrived
Operator:
SkyWest Airlines
More flights by this operator :: More flights under this callsign
Pilot: Paul K. (16555)
Aircraft: SAAB 340
(SF34)
More flights by this aircraft type
Origin: KVGT North Las Vegas
United States
Destination: KIFP Laughlin/Bullhead Intl
United States
More flights between these airports :: More routes between these airports
Route: RTTRN3 LAS V105 BLD V237 UNPAS DCT
File this flight plan on PilotEdge
Remarks:
Altitude:
(Current/Filed)
11,000ft
Speed:
(Current/Filed)
330kts
Departed: 17-Jul-18 08:28 PM
Arrived: 17-Jul-18 08:55 PM
Distance/Time
Traveled:
70nm/0:27
Distance/Time
To Go:
Arrived

Flight Plot

Page will automatically refresh every two minutes.

Flight plan parsing failed; only flown route is shown


Map Options




Map Legend


Flown Route
Filed Route
Departure Airport
Arrival Airport
Navaid (VOR, NDB)
Fix

Horizontal Profiles

Position Reports

Time Latitude Longitude Heading Altitude Ground
Speed
17-Jul-18 20:06 36.209240 -115.198725 314 2210ft 0kts
17-Jul-18 20:07 36.209240 -115.198725 314 2210ft 0kts
17-Jul-18 20:08 36.209240 -115.198725 314 2210ft 0kts
17-Jul-18 20:09 36.209240 -115.198725 314 2210ft 0kts
17-Jul-18 20:10 36.209240 -115.198725 314 2210ft 0kts
17-Jul-18 20:11 36.209240 -115.198725 314 2210ft 0kts
17-Jul-18 20:12 36.209240 -115.198725 314 2210ft 0kts
17-Jul-18 20:13 36.209240 -115.198725 314 2210ft 0kts
17-Jul-18 20:14 36.209240 -115.198725 314 2210ft 0kts
17-Jul-18 20:15 36.209240 -115.198725 314 2210ft 0kts
17-Jul-18 20:16 36.209240 -115.198725 314 2210ft 0kts
17-Jul-18 20:17 36.209240 -115.198725 314 2210ft 0kts
17-Jul-18 20:18 36.209240 -115.198725 314 2210ft 0kts
17-Jul-18 20:19 36.209316 -115.198823 314 2210ft 0kts
17-Jul-18 20:20 36.209325 -115.198833 314 2210ft 0kts
17-Jul-18 20:21 36.209412 -115.198850 24 2210ft 1kts
17-Jul-18 20:22 36.209651 -115.198602 38 2210ft 0kts
17-Jul-18 20:23 36.210309 -115.198568 42 2210ft 4kts
17-Jul-18 20:24 36.211886 -115.200324 314 2210ft 8kts
17-Jul-18 20:25 36.212637 -115.202477 267 2210ft 8kts
17-Jul-18 20:26 36.213734 -115.203336 0 2210ft 3kts
17-Jul-18 20:27 36.214113 -115.203223 37 2210ft 0kts
17-Jul-18 20:28 36.214158 -115.203178 39 2210ft 2kts
17-Jul-18 20:29 36.213049 -115.200624 133 2210ft 53kts
17-Jul-18 20:30 36.192898 -115.176574 165 2994ft 124kts
17-Jul-18 20:31 36.177768 -115.212290 261 4469ft 149kts
17-Jul-18 20:32 36.199926 -115.251338 329 5889ft 168kts
17-Jul-18 20:33 36.235611 -115.237895 99 7358ft 174kts
17-Jul-18 20:34 36.194906 -115.209696 159 8870ft 180kts
17-Jul-18 20:35 36.147309 -115.189287 159 10286ft 185kts
17-Jul-18 20:36 36.096244 -115.166870 158 10998ft 218kts
17-Jul-18 20:37 36.062227 -115.102273 107 11001ft 244kts
17-Jul-18 20:38 36.041700 -115.024710 108 10995ft 254kts
17-Jul-18 20:39 36.013598 -114.944796 142 10996ft 261kts
17-Jul-18 20:40 35.943541 -114.917199 158 11000ft 266kts
17-Jul-18 20:41 35.874649 -114.886377 157 10999ft 266kts
17-Jul-18 20:42 35.805368 -114.854657 157 10999ft 266kts
17-Jul-18 20:43 35.736046 -114.822903 157 10999ft 266kts
17-Jul-18 20:44 35.667653 -114.791642 157 11052ft 249kts
17-Jul-18 20:45 35.608226 -114.764502 157 9953ft 241kts
17-Jul-18 20:46 35.545827 -114.736058 157 8649ft 237kts
17-Jul-18 20:47 35.484679 -114.708231 157 7351ft 234kts
17-Jul-18 20:48 35.427382 -114.682219 157 6961ft 196kts
17-Jul-18 20:49 35.380496 -114.660931 157 6968ft 172kts
17-Jul-18 20:50 35.337695 -114.638896 140 6435ft 171kts
17-Jul-18 20:51 35.300423 -114.599052 138 4807ft 170kts
17-Jul-18 20:52 35.266411 -114.569541 167 2992ft 130kts
17-Jul-18 20:53 35.234634 -114.566226 174 2017ft 109kts
17-Jul-18 20:54 35.205042 -114.563221 171 1593ft 108kts
17-Jul-18 20:55 35.176825 -114.560994 174 935ft 102kts
17-Jul-18 20:56 35.157522 -114.559500 179 706ft 14kts
17-Jul-18 20:57 35.155860 -114.558299 93 706ft 0kts
17-Jul-18 20:58 35.156439 -114.558069 355 706ft 13kts
17-Jul-18 20:59 35.160760 -114.558419 354 706ft 16kts
17-Jul-18 21:00 35.165010 -114.558425 65 706ft 11kts
17-Jul-18 21:01 35.165312 -114.556469 359 706ft 0kts
17-Jul-18 21:02 35.165312 -114.556469 359 706ft 0kts
17-Jul-18 21:03 35.165312 -114.556469 359 706ft 0kts
17-Jul-18 21:04 35.165312 -114.556469 359 706ft 0kts
17-Jul-18 21:05 35.165312 -114.556469 359 706ft 0kts
17-Jul-18 21:06 35.165312 -114.556469 359 706ft 0kts
17-Jul-18 21:07 35.165312 -114.556469 359 706ft 0kts
17-Jul-18 21:08 35.165312 -114.556469 359 706ft 0kts
17-Jul-18 21:09 35.165312 -114.556469 359 706ft 0kts
17-Jul-18 21:10 35.165312 -114.556469 359 706ft 0kts
17-Jul-18 21:11 35.165312 -114.556469 359 706ft 0kts

Navigation Log

Ident Type
Flight plan parsing failed, navigation log unavailable